Elwin, Illinois
Current Conditions -  °F | °C
As of 9:54 AM on Thursday 27 Nov 2014 (Local Time) from KDEC Reporting Station
Haze Haze  
Wind Chill: 18°   Ceiling: 3000
Heat Index: 28°   Visibility: 5mi
Dew Point: 22°   Wind: 12mph
Humidity: 78%   Direction: 300°WNW
Pressure: 30.42"   Gusts: NA
Location:  39.78°N, 88.98°W
Report Text: KDEC 271554Z 30010KT 5SM HZ OVC030 M02/M06 A3042 RMK AO2 SLP308 T10221056
Loading
Personal Weather Stations






























Interactive Weather Map New forecast layout! Learn more

10-Day Weather Forecast

Advertisements
Track Severe Weather on mobile